createdAt,value
2019-03-16T00:01:35.469Z,6.20
2019-03-16T00:04:05.212Z,6.20
2019-03-16T00:06:38.099Z,6.20
2019-03-16T00:09:08.398Z,6.20
2019-03-16T00:11:37.304Z,6.20
2019-03-16T00:14:07.069Z,6.20
2019-03-16T00:16:36.283Z,6.20
2019-03-16T00:19:06.509Z,6.10
2019-03-16T00:21:35.646Z,6.20
2019-03-16T00:24:04.625Z,6.20
2019-03-16T00:26:33.864Z,6.10
2019-03-16T00:29:03.052Z,6.20
2019-03-16T00:31:32.581Z,6.30
2019-03-16T00:34:01.417Z,6.20
2019-03-16T00:36:32.200Z,6.20
2019-03-16T00:39:01.279Z,6.20
2019-03-16T00:41:30.536Z,6.20
2019-03-16T00:43:59.462Z,6.20
2019-03-16T00:46:28.264Z,6.20
2019-03-16T00:48:57.368Z,6.20
2019-03-16T00:51:26.772Z,6.20
2019-03-16T00:53:56.519Z,6.20
2019-03-16T00:56:25.616Z,6.30
2019-03-16T00:58:54.636Z,6.20
2019-03-16T01:01:24.159Z,6.20
2019-03-16T01:03:52.976Z,6.40
2019-03-16T01:06:24.053Z,6.50
2019-03-16T01:08:53.027Z,6.50
2019-03-16T01:11:21.916Z,6.50
2019-03-16T01:13:50.819Z,6.40
2019-03-16T01:16:19.625Z,6.40
2019-03-16T01:18:48.625Z,6.40
2019-03-16T01:21:17.835Z,6.50
2019-03-16T01:23:46.677Z,6.50
2019-03-16T01:26:16.409Z,6.50
2019-03-16T01:28:45.391Z,6.50
2019-03-16T01:31:14.501Z,6.40
2019-03-16T01:33:43.392Z,6.30
2019-03-16T01:36:12.176Z,6.20
2019-03-16T01:38:41.048Z,6.20
2019-03-16T01:41:09.999Z,6.20
2019-03-16T01:43:38.936Z,6.10
2019-03-16T01:46:07.792Z,6.20
2019-03-16T01:48:37.148Z,6.10
2019-03-16T01:51:05.935Z,6.00
2019-03-16T01:53:35.154Z,6.00
2019-03-16T01:56:04.038Z,6.10
2019-03-16T01:58:32.996Z,6.20
2019-03-16T02:01:01.804Z,6.20
2019-03-16T02:03:30.979Z,6.30
2019-03-16T02:06:00.120Z,6.30
2019-03-16T02:08:30.144Z,6.30
2019-03-16T02:11:00.993Z,6.30
2019-03-16T02:13:30.001Z,6.20
2019-03-16T02:16:10.243Z,6.30
2019-03-16T02:18:29.982Z,6.20
2019-03-16T02:20:58.784Z,6.20
2019-03-16T02:23:28.544Z,6.30
2019-03-16T02:25:57.644Z,6.40
2019-03-16T02:28:26.483Z,6.40
2019-03-16T02:30:57.751Z,6.40
2019-03-16T02:33:26.716Z,6.50
2019-03-16T02:35:55.809Z,6.40
2019-03-16T02:38:24.726Z,6.40
2019-03-16T02:40:53.549Z,6.40
2019-03-16T02:43:22.317Z,6.50
2019-03-16T02:45:51.141Z,6.50
2019-03-16T02:48:20.179Z,6.50
2019-03-16T02:50:48.953Z,6.40
2019-03-16T02:53:17.765Z,6.40
2019-03-16T02:55:46.584Z,6.30
2019-03-16T02:58:15.922Z,6.40
2019-03-16T03:00:44.848Z,6.30
2019-03-16T03:03:28.378Z,6.30
2019-03-16T03:05:46.276Z,6.30
2019-03-16T03:08:15.150Z,6.30
2019-03-16T03:10:44.112Z,6.30
2019-03-16T03:13:13.852Z,6.30
2019-03-16T03:15:43.786Z,6.40
2019-03-16T03:18:12.661Z,6.30
2019-03-16T03:20:41.591Z,6.30
2019-03-16T03:23:10.801Z,6.30
2019-03-16T03:25:39.973Z,6.30
2019-03-16T03:28:09.139Z,6.30
2019-03-16T03:30:38.353Z,6.30
2019-03-16T03:33:07.626Z,6.30
2019-03-16T03:35:37.039Z,6.30
2019-03-16T03:38:05.960Z,6.30
2019-03-16T03:40:35.344Z,6.40
2019-03-16T03:43:04.293Z,6.40
2019-03-16T03:45:33.246Z,6.30
2019-03-16T03:48:02.467Z,6.30
2019-03-16T03:50:33.133Z,6.30
2019-03-16T03:53:03.351Z,6.40
2019-03-16T03:55:32.533Z,6.40
2019-03-16T03:58:01.659Z,6.30
2019-03-16T04:00:30.401Z,6.40
2019-03-16T04:02:59.241Z,6.30
2019-03-16T04:05:28.362Z,6.40
2019-03-16T04:07:57.253Z,6.40
2019-03-16T04:10:26.568Z,6.40
2019-03-16T04:12:55.282Z,6.30
2019-03-16T04:15:24.225Z,6.30
2019-03-16T04:17:53.115Z,6.30
2019-03-16T04:20:22.421Z,6.20
2019-03-16T04:22:52.127Z,6.30
2019-03-16T04:25:21.038Z,6.30
2019-03-16T04:27:49.888Z,6.30
2019-03-16T04:30:18.711Z,6.30
2019-03-16T04:32:47.860Z,6.40
2019-03-16T04:35:16.952Z,6.30
2019-03-16T04:37:45.688Z,6.40
2019-03-16T04:40:14.540Z,6.30
2019-03-16T04:42:43.460Z,6.30
2019-03-16T04:45:12.304Z,6.40
2019-03-16T04:47:41.290Z,6.40
2019-03-16T04:50:10.383Z,6.30
2019-03-16T04:52:39.525Z,6.20
2019-03-16T04:55:08.907Z,6.20
2019-03-16T04:57:37.708Z,6.20
2019-03-16T05:00:06.631Z,6.20
2019-03-16T05:02:35.984Z,6.20
2019-03-16T05:05:05.603Z,6.10
2019-03-16T05:07:34.523Z,6.00
2019-03-16T05:10:07.118Z,6.10
2019-03-16T05:12:35.896Z,6.00
2019-03-16T05:15:05.583Z,6.10
2019-03-16T05:17:34.741Z,6.10
2019-03-16T05:20:04.742Z,6.20
2019-03-16T05:22:33.900Z,6.20
2019-03-16T05:25:02.699Z,6.10
2019-03-16T05:27:31.521Z,6.10
2019-03-16T05:30:00.389Z,6.10
2019-03-16T05:32:29.260Z,6.20
2019-03-16T05:34:58.151Z,6.10
2019-03-16T05:37:27.381Z,6.10
2019-03-16T05:39:56.136Z,6.10
2019-03-16T05:42:24.848Z,6.10
2019-03-16T05:44:53.660Z,6.10
2019-03-16T05:47:22.765Z,5.90
2019-03-16T05:49:51.552Z,6.00
2019-03-16T05:52:20.292Z,6.10
2019-03-16T05:54:49.451Z,6.00
2019-03-16T05:57:18.240Z,6.00
2019-03-16T05:59:47.077Z,6.10
2019-03-16T06:02:16.768Z,6.10
2019-03-16T06:04:46.577Z,6.00
2019-03-16T06:07:15.355Z,6.00
2019-03-16T06:09:45.474Z,6.20
2019-03-16T06:12:14.288Z,6.10
2019-03-16T06:14:43.232Z,6.10
2019-03-16T06:17:12.201Z,6.10
2019-03-16T06:19:41.233Z,6.20
2019-03-16T06:22:10.481Z,6.30
2019-03-16T06:24:39.416Z,6.10
2019-03-16T06:27:08.536Z,6.10
2019-03-16T06:29:37.434Z,6.00
2019-03-16T06:32:06.160Z,6.20
2019-03-16T06:34:34.874Z,6.10
2019-03-16T06:37:03.685Z,6.20
2019-03-16T06:39:32.577Z,6.30
2019-03-16T06:42:01.756Z,6.20
2019-03-16T06:44:31.169Z,6.20
2019-03-16T06:47:00.413Z,6.40
2019-03-16T06:49:30.164Z,6.40
2019-03-16T06:51:59.208Z,6.50
2019-03-16T06:54:28.685Z,6.50
2019-03-16T06:56:57.789Z,6.50
2019-03-16T06:59:27.403Z,6.60
2019-03-16T07:01:56.305Z,6.70
2019-03-16T07:04:28.066Z,6.70
2019-03-16T07:06:58.361Z,6.80
2019-03-16T07:09:27.140Z,6.80
2019-03-16T07:11:56.223Z,6.70
2019-03-16T07:14:25.495Z,6.80
2019-03-16T07:17:02.165Z,7.00
2019-03-16T07:19:25.571Z,7.00
2019-03-16T07:21:54.295Z,6.90
2019-03-16T07:24:23.150Z,6.90
2019-03-16T07:26:51.973Z,7.00
2019-03-16T07:29:20.833Z,7.00
2019-03-16T07:31:49.580Z,7.10
2019-03-16T07:34:20.023Z,7.10
2019-03-16T07:36:49.379Z,7.10
2019-03-16T07:39:19.248Z,7.20
2019-03-16T07:41:48.176Z,7.30
2019-03-16T07:44:17.367Z,7.20
2019-03-16T07:46:46.207Z,7.40
2019-03-16T07:49:15.397Z,7.40
2019-03-16T07:51:44.212Z,7.30
2019-03-16T07:54:13.236Z,7.40
2019-03-16T07:56:43.515Z,7.40
2019-03-16T07:59:12.824Z,7.50
2019-03-16T08:01:41.569Z,7.40
2019-03-16T08:04:11.061Z,7.50
2019-03-16T08:06:39.784Z,7.40
2019-03-16T08:09:08.585Z,7.50
2019-03-16T08:11:37.372Z,7.60
2019-03-16T08:14:06.213Z,7.70
2019-03-16T08:16:35.092Z,7.60
2019-03-16T08:19:04.801Z,7.50
2019-03-16T08:21:33.617Z,7.50
2019-03-16T08:24:02.801Z,7.60
2019-03-16T08:26:31.828Z,7.60
2019-03-16T08:29:00.678Z,7.80
2019-03-16T08:31:29.815Z,7.80
2019-03-16T08:33:58.660Z,7.80
2019-03-16T08:36:29.320Z,7.90
2019-03-16T08:38:58.141Z,7.90
2019-03-16T08:41:28.116Z,8.00
2019-03-16T08:43:57.089Z,8.10
2019-03-16T08:46:25.908Z,8.20
2019-03-16T08:48:55.111Z,8.00
2019-03-16T08:51:24.169Z,8.20
2019-03-16T08:53:54.248Z,8.40
2019-03-16T08:56:24.921Z,8.50
2019-03-16T08:58:53.809Z,8.60
2019-03-16T09:01:23.154Z,8.60
2019-03-16T09:03:52.108Z,8.70
2019-03-16T09:06:23.860Z,8.70
2019-03-16T09:08:53.032Z,8.70
2019-03-16T09:11:22.338Z,8.50
2019-03-16T09:13:51.145Z,8.60
2019-03-16T09:16:20.483Z,8.60
2019-03-16T09:18:49.677Z,8.40
2019-03-16T09:21:19.438Z,8.40
2019-03-16T09:23:48.237Z,8.30
2019-03-16T09:26:17.071Z,8.20
2019-03-16T09:28:59.323Z,8.10
2019-03-16T09:31:17.957Z,8.10
2019-03-16T09:33:46.797Z,8.00
2019-03-16T09:36:15.848Z,8.00
2019-03-16T09:38:44.700Z,7.90
2019-03-16T09:41:13.480Z,7.80
2019-03-16T09:43:42.213Z,7.70
2019-03-16T09:46:11.248Z,7.60
2019-03-16T09:48:40.122Z,7.40
2019-03-16T09:51:08.929Z,7.30
2019-03-16T09:53:38.392Z,7.30
2019-03-16T09:56:07.465Z,7.20
2019-03-16T09:58:37.016Z,7.10
2019-03-16T10:01:06.441Z,7.20
2019-03-16T10:03:35.472Z,7.10
2019-03-16T10:06:05.023Z,7.20
2019-03-16T10:08:33.903Z,7.00
2019-03-16T10:11:02.936Z,6.90
2019-03-16T10:13:32.100Z,7.00
2019-03-16T10:16:01.460Z,7.10
2019-03-16T10:18:30.279Z,7.00
2019-03-16T10:20:59.245Z,7.00
2019-03-16T10:23:28.081Z,7.10
2019-03-16T10:25:57.909Z,7.50
2019-03-16T10:28:26.694Z,7.60
2019-03-16T10:30:58.772Z,7.70
2019-03-16T10:33:27.861Z,7.60
2019-03-16T10:35:56.703Z,7.60
2019-03-16T10:38:25.899Z,7.40
2019-03-16T10:40:54.880Z,7.10
2019-03-16T10:43:23.677Z,7.20
2019-03-16T10:45:52.692Z,7.20
2019-03-16T10:48:21.417Z,7.10
2019-03-16T10:50:50.425Z,7.20
2019-03-16T10:53:20.445Z,7.20
2019-03-16T10:55:49.396Z,7.40
2019-03-16T10:58:18.744Z,7.30
2019-03-16T11:00:47.918Z,7.30
2019-03-16T11:03:17.309Z,6.90
2019-03-16T11:05:48.195Z,7.10
2019-03-16T11:08:17.560Z,7.10
2019-03-16T11:10:46.388Z,6.90
2019-03-16T11:13:16.709Z,6.90
2019-03-16T11:15:46.307Z,7.00
2019-03-16T11:18:15.365Z,7.30
2019-03-16T11:20:44.188Z,7.40
2019-03-16T11:23:12.942Z,7.30
2019-03-16T11:25:41.790Z,7.20
2019-03-16T11:28:10.620Z,7.20
2019-03-16T11:30:39.336Z,7.30
2019-03-16T11:33:08.494Z,7.00
2019-03-16T11:35:37.561Z,6.90
2019-03-16T11:38:06.287Z,7.00
2019-03-16T11:40:35.125Z,7.00
2019-03-16T11:43:04.036Z,6.80
2019-03-16T11:45:33.055Z,6.60
2019-03-16T11:48:01.878Z,6.60
2019-03-16T11:50:30.689Z,6.50
2019-03-16T11:52:59.744Z,6.40
2019-03-16T11:55:29.168Z,6.10
2019-03-16T11:57:58.122Z,5.80
2019-03-16T12:00:28.177Z,5.90
2019-03-16T12:02:57.208Z,6.00
2019-03-16T12:05:26.018Z,6.00
2019-03-16T12:07:54.944Z,6.30
2019-03-16T12:10:24.008Z,6.10
2019-03-16T12:12:53.620Z,6.00
2019-03-16T12:15:22.893Z,5.90
2019-03-16T12:17:52.669Z,6.00
2019-03-16T12:20:21.464Z,5.70
2019-03-16T12:22:50.208Z,5.60
2019-03-16T12:25:20.085Z,5.70
2019-03-16T12:27:48.823Z,6.00
2019-03-16T12:30:17.956Z,5.50
2019-03-16T12:32:47.122Z,5.50
2019-03-16T12:35:16.297Z,5.60
2019-03-16T12:37:45.570Z,5.80
2019-03-16T12:40:14.792Z,5.50
2019-03-16T12:42:44.005Z,5.30
2019-03-16T12:45:14.018Z,5.30
2019-03-16T12:47:44.744Z,5.20
2019-03-16T12:50:13.769Z,5.30
2019-03-16T12:52:43.756Z,5.30
2019-03-16T12:55:12.945Z,5.40
2019-03-16T12:57:41.901Z,5.20
2019-03-16T13:00:12.062Z,5.00
2019-03-16T13:02:40.813Z,5.10
2019-03-16T13:05:10.268Z,5.00
2019-03-16T13:07:40.508Z,5.10
2019-03-16T13:10:11.741Z,5.20
2019-03-16T13:12:40.747Z,5.10
2019-03-16T13:15:09.644Z,5.20
2019-03-16T13:17:38.745Z,5.10
2019-03-16T13:20:08.762Z,5.10
2019-03-16T13:22:39.105Z,5.10
2019-03-16T13:25:08.752Z,4.90
2019-03-16T13:27:37.636Z,4.80
2019-03-16T13:30:07.912Z,4.80
2019-03-16T13:32:37.000Z,4.90
2019-03-16T13:35:06.052Z,4.90
2019-03-16T13:37:34.845Z,4.90
2019-03-16T13:40:04.980Z,4.90
2019-03-16T13:42:34.020Z,4.90
2019-03-16T13:45:02.817Z,4.80
2019-03-16T13:47:31.564Z,4.70
2019-03-16T13:50:00.372Z,4.60
2019-03-16T13:52:29.244Z,4.70
2019-03-16T13:54:58.320Z,4.70
2019-03-16T13:57:28.189Z,4.70
2019-03-16T13:59:57.129Z,4.80
2019-03-16T14:02:26.488Z,4.80
2019-03-16T14:04:55.935Z,4.90
2019-03-16T14:07:25.536Z,4.90
2019-03-16T14:09:55.056Z,4.80
2019-03-16T14:12:23.971Z,4.90
2019-03-16T14:14:53.779Z,4.70
2019-03-16T14:17:22.781Z,4.80
2019-03-16T14:19:51.938Z,4.80
2019-03-16T14:22:22.050Z,4.80
2019-03-16T14:24:51.407Z,4.90
2019-03-16T14:27:20.168Z,5.00
2019-03-16T14:29:49.696Z,5.00
2019-03-16T14:32:20.694Z,4.90
2019-03-16T14:34:49.940Z,5.00
2019-03-16T14:37:19.084Z,5.10
2019-03-16T14:39:48.824Z,5.10
2019-03-16T14:42:17.716Z,5.20
2019-03-16T14:44:46.761Z,5.10
2019-03-16T14:47:15.771Z,5.10
2019-03-16T14:49:45.227Z,5.00
2019-03-16T14:52:14.289Z,5.20
2019-03-16T14:54:43.035Z,5.30
2019-03-16T14:57:11.816Z,5.50
2019-03-16T14:59:40.920Z,5.50
2019-03-16T15:02:10.004Z,5.40
2019-03-16T15:04:39.192Z,5.40
2019-03-16T15:07:08.020Z,5.60
2019-03-16T15:09:36.756Z,5.70
2019-03-16T15:12:06.385Z,5.80
2019-03-16T15:14:35.591Z,5.80
2019-03-16T15:17:04.485Z,5.90
2019-03-16T15:19:33.332Z,6.00
2019-03-16T15:22:02.156Z,6.00
2019-03-16T15:24:32.005Z,6.10
2019-03-16T15:27:03.097Z,6.10
2019-03-16T15:29:33.220Z,6.00
2019-03-16T15:32:02.404Z,6.00
2019-03-16T15:34:31.468Z,6.00
2019-03-16T15:37:00.653Z,6.10
2019-03-16T15:39:29.765Z,6.10
2019-03-16T15:41:59.116Z,6.20
2019-03-16T15:44:27.995Z,6.40
2019-03-16T15:46:56.820Z,6.60
2019-03-16T15:49:25.944Z,6.70
2019-03-16T15:51:54.692Z,6.70
2019-03-16T15:54:23.540Z,6.70
2019-03-16T15:56:52.985Z,6.80
2019-03-16T15:59:21.776Z,6.90
2019-03-16T16:01:50.620Z,7.00
2019-03-16T16:04:19.504Z,7.10
2019-03-16T16:06:49.364Z,7.20
2019-03-16T16:09:18.100Z,7.30
2019-03-16T16:11:47.008Z,7.40
2019-03-16T16:14:16.549Z,7.60
2019-03-16T16:16:45.396Z,7.60
2019-03-16T16:19:14.313Z,7.80
2019-03-16T16:21:43.072Z,7.90
2019-03-16T16:24:12.041Z,7.90
2019-03-16T16:26:40.865Z,8.00
2019-03-16T16:29:09.764Z,7.90
2019-03-16T16:31:38.652Z,8.00
2019-03-16T16:34:07.456Z,8.10
2019-03-16T16:36:36.208Z,8.00
2019-03-16T16:39:06.785Z,8.00
2019-03-16T16:41:35.702Z,8.00
2019-03-16T16:44:04.760Z,8.10
2019-03-16T16:46:33.583Z,8.20
2019-03-16T16:49:02.519Z,8.30
2019-03-16T16:51:31.256Z,8.40
2019-03-16T16:54:00.440Z,8.40
2019-03-16T16:56:29.760Z,8.50
2019-03-16T16:58:58.500Z,8.40
2019-03-16T17:01:29.592Z,8.50
2019-03-16T17:03:57.911Z,8.50
2019-03-16T17:06:26.687Z,8.60
2019-03-16T17:08:55.481Z,8.60
2019-03-16T17:11:26.273Z,8.60
2019-03-16T17:13:56.481Z,8.60
2019-03-16T17:16:25.456Z,8.50
2019-03-16T17:18:54.223Z,8.40
2019-03-16T17:21:22.945Z,8.50
2019-03-16T17:23:51.675Z,8.50
2019-03-16T17:26:21.051Z,8.50
2019-03-16T17:28:49.969Z,8.50
2019-03-16T17:31:19.158Z,8.50
2019-03-16T17:33:48.157Z,8.60
2019-03-16T17:36:17.132Z,8.60
2019-03-16T17:38:45.853Z,8.50
2019-03-16T17:41:14.645Z,8.60
2019-03-16T17:43:43.356Z,8.40
2019-03-16T17:46:12.727Z,8.50
2019-03-16T17:48:41.524Z,8.60
2019-03-16T17:51:10.236Z,8.60
2019-03-16T17:53:38.999Z,8.70
2019-03-16T17:56:07.757Z,8.70
2019-03-16T17:58:36.792Z,8.70
2019-03-16T18:01:05.640Z,8.70
2019-03-16T18:03:34.453Z,8.70
2019-03-16T18:06:03.496Z,8.60
2019-03-16T18:08:33.552Z,8.60
2019-03-16T18:11:02.512Z,8.70
2019-03-16T18:13:31.415Z,8.70
2019-03-16T18:16:01.549Z,8.70
2019-03-16T18:18:30.377Z,8.70
2019-03-16T18:20:59.272Z,8.70
2019-03-16T18:23:28.425Z,8.60
2019-03-16T18:25:58.316Z,8.70
2019-03-16T18:28:28.102Z,8.60
2019-03-16T18:30:56.909Z,8.60
2019-03-16T18:33:25.639Z,8.60
2019-03-16T18:35:54.436Z,8.60
2019-03-16T18:38:23.181Z,8.70
2019-03-16T18:40:52.148Z,8.70
2019-03-16T18:43:21.144Z,8.80
2019-03-16T18:45:50.008Z,8.70
2019-03-16T18:48:18.889Z,8.70
2019-03-16T18:50:47.683Z,8.60
2019-03-16T18:53:16.609Z,8.60
2019-03-16T18:55:45.446Z,8.60
2019-03-16T18:58:14.456Z,8.60
2019-03-16T19:00:43.640Z,8.70
2019-03-16T19:03:12.536Z,8.60
2019-03-16T19:05:41.340Z,8.70
2019-03-16T19:08:10.197Z,8.60
2019-03-16T19:10:39.503Z,8.70
2019-03-16T19:13:08.468Z,8.70
2019-03-16T19:15:37.503Z,8.80
2019-03-16T19:18:06.692Z,8.80
2019-03-16T19:20:35.667Z,8.80
2019-03-16T19:23:04.820Z,8.80
2019-03-16T19:25:34.774Z,8.80
2019-03-16T19:28:03.497Z,8.80
2019-03-16T19:30:32.711Z,8.80
2019-03-16T19:33:01.818Z,8.80
2019-03-16T19:35:30.651Z,8.90
2019-03-16T19:37:59.445Z,8.80
2019-03-16T19:40:28.188Z,8.80
2019-03-16T19:42:57.146Z,8.90
2019-03-16T19:45:26.848Z,8.90
2019-03-16T19:47:55.956Z,8.90
2019-03-16T19:50:25.956Z,8.90
2019-03-16T19:52:54.904Z,8.90
2019-03-16T19:55:23.650Z,8.90
2019-03-16T19:57:52.732Z,8.90
2019-03-16T20:00:21.595Z,8.90
2019-03-16T20:02:52.136Z,8.90
2019-03-16T20:05:21.960Z,9.00
2019-03-16T20:07:51.209Z,9.00
2019-03-16T20:10:20.374Z,9.00
2019-03-16T20:12:52.907Z,8.90
2019-03-16T20:15:20.512Z,9.00
2019-03-16T20:17:49.304Z,8.90
2019-03-16T20:20:18.273Z,9.00
2019-03-16T20:22:47.413Z,9.00
2019-03-16T20:25:16.601Z,9.00
2019-03-16T20:27:46.792Z,9.10
2019-03-16T20:30:16.010Z,9.10
2019-03-16T20:32:50.341Z,9.00
2019-03-16T20:35:15.585Z,9.00
2019-03-16T20:37:45.116Z,9.10
2019-03-16T20:40:14.112Z,9.20
2019-03-16T20:42:43.856Z,9.20
2019-03-16T20:45:12.968Z,9.20
2019-03-16T20:47:42.284Z,9.30
2019-03-16T20:50:11.437Z,9.20
2019-03-16T20:52:40.140Z,9.20
2019-03-16T20:55:09.178Z,9.40
2019-03-16T20:57:37.996Z,9.20
2019-03-16T21:00:07.295Z,9.30
2019-03-16T21:02:36.018Z,9.20
2019-03-16T21:05:05.748Z,9.20
2019-03-16T21:07:34.978Z,9.20
2019-03-16T21:10:04.644Z,9.20
2019-03-16T21:12:33.572Z,9.20
2019-03-16T21:15:02.539Z,9.20
2019-03-16T21:17:31.483Z,9.20
2019-03-16T21:20:00.966Z,9.30
2019-03-16T21:22:36.158Z,9.30
2019-03-16T21:25:00.382Z,9.30
2019-03-16T21:27:29.648Z,9.30
2019-03-16T21:29:58.693Z,9.30
2019-03-16T21:32:27.518Z,9.30
2019-03-16T21:34:56.868Z,9.40
2019-03-16T21:37:25.592Z,9.30
2019-03-16T21:39:54.830Z,9.30
2019-03-16T21:42:23.729Z,9.40
2019-03-16T21:44:52.576Z,9.30
2019-03-16T21:47:21.300Z,9.40
2019-03-16T21:49:50.556Z,9.30
2019-03-16T21:52:19.948Z,9.30
2019-03-16T21:54:49.119Z,9.40
2019-03-16T21:57:18.525Z,9.50
2019-03-16T21:59:47.697Z,9.50
2019-03-16T22:02:16.560Z,9.50
2019-03-16T22:04:45.675Z,9.50
2019-03-16T22:07:14.568Z,9.50
2019-03-16T22:09:44.536Z,9.50
2019-03-16T22:12:13.568Z,9.50
2019-03-16T22:14:44.020Z,9.40
2019-03-16T22:17:12.809Z,9.40
2019-03-16T22:19:41.666Z,9.40
2019-03-16T22:22:10.477Z,9.50
2019-03-16T22:24:39.260Z,9.50
2019-03-16T22:27:08.392Z,9.50
2019-03-16T22:29:38.950Z,9.50
2019-03-16T22:32:08.292Z,9.60
2019-03-16T22:34:37.032Z,9.60
2019-03-16T22:37:06.996Z,9.60
2019-03-16T22:39:35.996Z,9.50
2019-03-16T22:42:05.122Z,9.50
2019-03-16T22:44:34.022Z,9.50
2019-03-16T22:47:03.048Z,9.40
2019-03-16T22:49:31.784Z,9.40
2019-03-16T22:52:00.697Z,9.40
2019-03-16T22:54:29.856Z,9.40
2019-03-16T22:56:58.580Z,9.50
2019-03-16T22:59:27.299Z,9.50
2019-03-16T23:02:15.329Z,9.40
2019-03-16T23:04:44.254Z,9.60
2019-03-16T23:07:13.120Z,9.60
2019-03-16T23:09:41.860Z,9.60
2019-03-16T23:12:10.628Z,9.40
2019-03-16T23:14:39.432Z,9.40
2019-03-16T23:17:08.546Z,9.50
2019-03-16T23:19:37.528Z,9.50
2019-03-16T23:22:06.425Z,9.70
2019-03-16T23:24:35.424Z,9.50
2019-03-16T23:27:04.513Z,9.60
2019-03-16T23:29:33.599Z,9.50
2019-03-16T23:32:02.432Z,9.50
2019-03-16T23:34:31.252Z,9.50
2019-03-16T23:37:00.504Z,9.60
2019-03-16T23:39:29.644Z,9.60
2019-03-16T23:41:58.367Z,9.60
2019-03-16T23:44:27.424Z,9.60
2019-03-16T23:46:56.681Z,9.60
2019-03-16T23:49:25.501Z,9.60
2019-03-16T23:51:54.629Z,9.60
2019-03-16T23:54:23.664Z,9.60
2019-03-16T23:56:52.540Z,9.70
2019-03-16T23:59:21.402Z,9.60
